createdAt,value
2022-07-29T00:02:14.493Z,1.37
2022-07-29T00:04:41.200Z,1.45
2022-07-29T00:07:07.832Z,1.60
2022-07-29T00:09:42.965Z,1.75
2022-07-29T00:12:21.429Z,1.60
2022-07-29T00:14:55.215Z,1.40
2022-07-29T00:17:21.836Z,1.60
2022-07-29T00:19:48.335Z,1.77
2022-07-29T00:22:15.047Z,1.45
2022-07-29T00:24:41.782Z,1.52
2022-07-29T00:27:08.330Z,1.80
2022-07-29T00:29:35.326Z,1.40
2022-07-29T00:32:03.162Z,1.50
2022-07-29T00:34:48.709Z,1.50
2022-07-29T00:37:15.242Z,1.70
2022-07-29T00:39:41.922Z,1.73
2022-07-29T00:42:08.973Z,1.40
2022-07-29T00:44:39.852Z,1.90
2022-07-29T00:47:07.296Z,1.77
2022-07-29T00:49:35.115Z,1.50
2022-07-29T00:52:03.763Z,1.23
2022-07-29T00:54:31.176Z,1.30
2022-07-29T00:56:59.976Z,1.42
2022-07-29T00:59:34.627Z,1.20
2022-07-29T01:02:03.661Z,1.90
2022-07-29T01:04:31.790Z,1.47
2022-07-29T01:06:58.540Z,1.75
2022-07-29T01:09:35.029Z,1.80
2022-07-29T01:12:19.359Z,1.60
2022-07-29T01:14:47.706Z,1.65
2022-07-29T01:17:39.075Z,1.70
2022-07-29T01:20:44.723Z,1.70
2022-07-29T01:23:26.133Z,1.77
2022-07-29T01:26:09.331Z,1.60
2022-07-29T01:28:41.133Z,1.63
2022-07-29T01:31:11.456Z,2.03
2022-07-29T01:33:49.689Z,1.88
2022-07-29T01:36:32.033Z,1.80
2022-07-29T01:39:07.223Z,1.70
2022-07-29T01:41:37.175Z,1.65
2022-07-29T01:44:16.042Z,2.07
2022-07-29T01:46:57.120Z,2.35
2022-07-29T01:49:37.626Z,1.70
2022-07-29T01:52:14.139Z,2.13
2022-07-29T01:54:58.315Z,1.70
2022-07-29T01:57:30.224Z,1.50
2022-07-29T01:59:59.492Z,1.90
2022-07-29T02:02:28.996Z,1.55
2022-07-29T02:04:57.286Z,1.75
2022-07-29T02:07:27.717Z,1.60
2022-07-29T02:09:55.787Z,1.50
2022-07-29T02:12:25.098Z,1.50
2022-07-29T02:14:53.983Z,1.60
2022-07-29T02:17:27.410Z,1.55
2022-07-29T02:19:59.112Z,1.73
2022-07-29T02:22:27.851Z,1.63
2022-07-29T02:24:54.712Z,1.80
2022-07-29T02:27:21.910Z,1.50
2022-07-29T02:29:50.055Z,1.50
2022-07-29T02:32:18.199Z,1.77
2022-07-29T02:34:45.753Z,1.90
2022-07-29T02:37:13.578Z,1.50
2022-07-29T02:39:43.139Z,1.60
2022-07-29T02:42:13.672Z,1.40
2022-07-29T02:44:40.295Z,1.50
2022-07-29T02:47:27.751Z,1.63
2022-07-29T02:50:22.265Z,1.70
2022-07-29T02:52:58.671Z,1.33
2022-07-29T02:55:43.688Z,1.45
2022-07-29T02:58:29.478Z,1.40
2022-07-29T03:01:05.113Z,1.80
2022-07-29T03:03:38.266Z,1.75
2022-07-29T03:06:07.360Z,1.90
2022-07-29T03:08:35.782Z,1.75
2022-07-29T03:11:03.090Z,1.55
2022-07-29T03:13:31.057Z,1.40
2022-07-29T03:15:59.136Z,1.63
2022-07-29T03:18:26.864Z,1.88
2022-07-29T03:20:53.915Z,1.88
2022-07-29T03:23:23.619Z,1.90
2022-07-29T03:25:53.921Z,1.93
2022-07-29T03:28:22.143Z,1.90
2022-07-29T03:30:49.165Z,1.92
2022-07-29T03:33:16.389Z,1.83
2022-07-29T03:35:43.309Z,2.50
2022-07-29T03:38:09.860Z,2.30
2022-07-29T03:40:45.906Z,2.05
2022-07-29T03:43:14.274Z,2.50
2022-07-29T03:45:45.212Z,1.88
2022-07-29T03:48:14.969Z,1.98
2022-07-29T03:50:41.606Z,1.90
2022-07-29T03:53:08.947Z,1.70
2022-07-29T03:55:42.910Z,1.73
2022-07-29T03:58:10.685Z,1.75
2022-07-29T04:00:38.590Z,1.67
2022-07-29T04:03:06.144Z,1.50
2022-07-29T04:05:38.269Z,1.60
2022-07-29T04:08:05.183Z,1.60
2022-07-29T04:10:33.982Z,1.42
2022-07-29T04:13:01.091Z,1.25
2022-07-29T04:15:30.898Z,1.40
2022-07-29T04:17:58.727Z,1.33
2022-07-29T04:20:25.263Z,1.35
2022-07-29T04:22:51.748Z,1.33
2022-07-29T04:25:18.367Z,1.35
2022-07-29T04:28:01.173Z,1.33
2022-07-29T04:30:28.072Z,1.67
2022-07-29T04:32:54.726Z,1.30
2022-07-29T04:35:21.400Z,1.65
2022-07-29T04:37:47.957Z,1.50
2022-07-29T04:40:14.911Z,1.40
2022-07-29T04:42:46.406Z,1.60
2022-07-29T04:45:14.838Z,1.70
2022-07-29T04:47:42.666Z,1.40
2022-07-29T04:50:10.054Z,1.60
2022-07-29T04:52:36.856Z,1.73
2022-07-29T04:55:04.779Z,1.58
2022-07-29T04:57:31.512Z,1.65
2022-07-29T04:59:58.124Z,1.42
2022-07-29T05:02:24.873Z,1.40
2022-07-29T05:04:51.453Z,1.50
2022-07-29T05:07:17.964Z,1.42
2022-07-29T05:09:44.579Z,1.50
2022-07-29T05:12:11.822Z,1.50
2022-07-29T05:14:38.500Z,1.73
2022-07-29T05:17:05.116Z,1.50
2022-07-29T05:19:31.732Z,1.60
2022-07-29T05:21:58.322Z,1.70
2022-07-29T05:24:24.885Z,1.48
2022-07-29T05:26:51.448Z,1.60
2022-07-29T05:29:43.889Z,1.40
2022-07-29T05:32:05.643Z,1.40
2022-07-29T05:34:32.593Z,1.83
2022-07-29T05:36:59.564Z,1.40
2022-07-29T05:39:47.072Z,1.60
2022-07-29T05:42:12.700Z,1.53
2022-07-29T05:44:41.096Z,1.67
2022-07-29T05:47:07.616Z,1.48
2022-07-29T05:49:34.245Z,1.58
2022-07-29T05:52:00.923Z,1.60
2022-07-29T05:54:27.533Z,1.80
2022-07-29T05:56:54.224Z,2.33
2022-07-29T05:59:20.790Z,1.88
2022-07-29T06:01:47.414Z,1.90
2022-07-29T06:04:14.401Z,1.98
2022-07-29T06:06:41.130Z,1.80
2022-07-29T06:09:12.296Z,1.80
2022-07-29T06:11:39.529Z,1.77
2022-07-29T06:14:06.160Z,1.63
2022-07-29T06:16:32.839Z,2.13
2022-07-29T06:18:59.613Z,1.67
2022-07-29T06:21:26.450Z,1.60
2022-07-29T06:23:53.020Z,1.65
2022-07-29T06:26:19.580Z,2.17
2022-07-29T06:28:57.438Z,1.60
2022-07-29T06:31:24.077Z,1.60
2022-07-29T06:33:50.692Z,1.90
2022-07-29T06:36:17.348Z,1.98
2022-07-29T06:38:49.209Z,1.83
2022-07-29T06:41:18.309Z,1.90
2022-07-29T06:43:52.153Z,2.20
2022-07-29T06:46:22.339Z,2.03
2022-07-29T06:48:49.866Z,2.20
2022-07-29T06:51:22.238Z,1.77
2022-07-29T06:53:59.500Z,2.10
2022-07-29T06:56:42.099Z,2.13
2022-07-29T06:59:10.866Z,2.20
2022-07-29T07:01:39.413Z,2.50
2022-07-29T07:04:06.728Z,2.05
2022-07-29T07:06:33.574Z,2.05
2022-07-29T07:09:00.103Z,2.10
2022-07-29T07:11:26.639Z,2.38
2022-07-29T07:13:53.166Z,2.03
2022-07-29T07:16:19.879Z,2.10
2022-07-29T07:18:46.491Z,2.20
2022-07-29T07:21:13.303Z,2.10
2022-07-29T07:23:46.346Z,2.00
2022-07-29T07:26:12.979Z,2.13
2022-07-29T07:28:39.522Z,1.80
2022-07-29T07:31:06.273Z,1.98
2022-07-29T07:33:32.827Z,2.60
2022-07-29T07:35:59.491Z,2.17
2022-07-29T07:38:26.016Z,2.30
2022-07-29T07:40:52.735Z,2.20
2022-07-29T07:43:19.305Z,2.20
2022-07-29T07:45:45.901Z,2.20
2022-07-29T07:48:12.496Z,2.38
2022-07-29T07:50:39.081Z,2.58
2022-07-29T07:53:05.928Z,2.35
2022-07-29T07:55:53.578Z,2.50
2022-07-29T07:58:19.001Z,2.80
2022-07-29T08:00:45.635Z,3.22
2022-07-29T08:03:17.002Z,3.00
2022-07-29T08:05:44.043Z,2.50
2022-07-29T08:08:10.701Z,2.75
2022-07-29T08:10:56.101Z,2.90
2022-07-29T08:13:26.551Z,2.50
2022-07-29T08:15:58.711Z,3.00
2022-07-29T08:18:32.164Z,3.03
2022-07-29T08:20:59.500Z,3.10
2022-07-29T08:23:32.904Z,3.77
2022-07-29T08:26:14.480Z,2.90
2022-07-29T08:28:45.725Z,3.00
2022-07-29T08:31:13.741Z,2.90
2022-07-29T08:33:40.394Z,2.80
2022-07-29T08:36:07.449Z,3.03
2022-07-29T08:38:34.242Z,3.00
2022-07-29T08:41:04.195Z,2.83
2022-07-29T08:43:30.760Z,2.78
2022-07-29T08:45:57.298Z,2.70
2022-07-29T08:48:24.921Z,2.60
2022-07-29T08:50:56.766Z,2.95
2022-07-29T08:53:27.434Z,2.78
2022-07-29T08:55:54.247Z,3.03
2022-07-29T08:58:24.654Z,2.95
2022-07-29T09:00:55.460Z,2.97
2022-07-29T09:03:30.600Z,3.35
2022-07-29T09:05:57.617Z,3.50
2022-07-29T09:08:24.766Z,3.15
2022-07-29T09:10:52.246Z,3.60
2022-07-29T09:13:19.110Z,2.90
2022-07-29T09:15:46.303Z,3.65
2022-07-29T09:18:20.341Z,3.10
2022-07-29T09:21:15.835Z,3.15
2022-07-29T09:23:43.853Z,3.08
2022-07-29T09:26:10.411Z,3.13
2022-07-29T09:28:43.439Z,3.20
2022-07-29T09:31:10.142Z,3.10
2022-07-29T09:33:40.047Z,3.47
2022-07-29T09:36:08.859Z,3.22
2022-07-29T09:38:37.632Z,3.30
2022-07-29T09:41:07.029Z,2.90
2022-07-29T09:43:34.716Z,2.90
2022-07-29T09:46:12.725Z,3.60
2022-07-29T09:48:39.418Z,3.40
2022-07-29T09:51:07.450Z,3.10
2022-07-29T09:53:37.280Z,3.90
2022-07-29T09:56:06.689Z,3.10
2022-07-29T09:58:34.723Z,3.95
2022-07-29T10:01:01.570Z,3.17
2022-07-29T10:03:28.452Z,4.10
2022-07-29T10:06:11.119Z,3.83
2022-07-29T10:08:38.312Z,3.80
2022-07-29T10:11:13.642Z,3.50
2022-07-29T10:13:41.847Z,3.78
2022-07-29T10:16:09.340Z,4.32
2022-07-29T10:18:36.238Z,3.23
2022-07-29T10:21:03.057Z,3.47
2022-07-29T10:23:31.052Z,3.50
2022-07-29T10:26:15.466Z,3.22
2022-07-29T10:28:42.222Z,3.17
2022-07-29T10:31:20.351Z,2.40
2022-07-29T10:33:59.893Z,2.30
2022-07-29T10:37:06.703Z,2.22
2022-07-29T10:39:41.888Z,2.13
2022-07-29T10:42:29.812Z,2.40
2022-07-29T10:45:02.614Z,2.55
2022-07-29T10:47:31.681Z,2.10
2022-07-29T10:50:01.858Z,2.20
2022-07-29T10:52:58.426Z,2.30
2022-07-29T10:55:35.688Z,2.42
2022-07-29T10:58:21.721Z,2.28
2022-07-29T11:00:50.624Z,1.80
2022-07-29T11:03:50.277Z,2.83
2022-07-29T11:06:18.214Z,2.30
2022-07-29T11:09:20.370Z,2.78
2022-07-29T11:11:53.139Z,2.25
2022-07-29T11:14:56.680Z,2.17
2022-07-29T11:17:24.615Z,2.80
2022-07-29T11:19:52.259Z,2.90
2022-07-29T11:22:35.517Z,2.80
2022-07-29T11:25:18.833Z,2.53
2022-07-29T11:27:48.424Z,3.10
2022-07-29T11:30:15.099Z,3.30
2022-07-29T11:32:48.595Z,2.70
2022-07-29T11:38:28.684Z,2.47
2022-07-29T11:41:25.482Z,2.72
2022-07-29T11:43:55.907Z,2.50
2022-07-29T11:46:46.435Z,2.50
2022-07-29T11:49:15.477Z,1.90
2022-07-29T11:51:48.089Z,2.15
2022-07-29T11:54:27.456Z,2.53
2022-07-29T11:56:54.873Z,2.40
2022-07-29T11:59:22.364Z,2.30
2022-07-29T12:04:58.142Z,1.97
2022-07-29T12:07:01.567Z,2.22
2022-07-29T12:07:03.341Z,2.33
2022-07-29T12:07:33.842Z,2.40
2022-07-29T12:10:02.532Z,2.63
2022-07-29T12:12:29.413Z,2.00
2022-07-29T12:14:56.410Z,2.10
2022-07-29T12:17:41.709Z,2.97
2022-07-29T12:20:08.529Z,2.40
2022-07-29T12:22:39.072Z,2.10
2022-07-29T12:25:32.668Z,1.95
2022-07-29T12:28:02.158Z,2.72
2022-07-29T12:30:42.302Z,2.00
2022-07-29T12:33:12.454Z,2.40
2022-07-29T12:35:39.593Z,2.40
2022-07-29T12:38:06.512Z,2.22
2022-07-29T12:40:33.149Z,2.13
2022-07-29T12:43:17.488Z,2.20
2022-07-29T12:45:47.098Z,2.50
2022-07-29T12:48:15.215Z,2.63
2022-07-29T12:50:56.770Z,1.95
2022-07-29T12:53:23.512Z,2.00
2022-07-29T12:55:55.374Z,1.77
2022-07-29T12:58:37.620Z,2.03
2022-07-29T13:01:17.610Z,1.80
2022-07-29T13:04:01.027Z,1.70
2022-07-29T13:06:45.994Z,2.13
2022-07-29T13:09:19.077Z,2.40
2022-07-29T13:11:48.746Z,2.00
2022-07-29T13:14:32.590Z,2.05
2022-07-29T13:17:10.036Z,2.35
2022-07-29T13:20:13.320Z,2.20
2022-07-29T13:22:40.998Z,2.00
2022-07-29T13:25:08.023Z,2.10
2022-07-29T13:27:37.434Z,1.77
2022-07-29T13:30:07.535Z,2.00
2022-07-29T13:32:35.507Z,1.90
2022-07-29T13:35:05.734Z,2.60
2022-07-29T13:37:35.120Z,1.90
2022-07-29T13:40:04.195Z,1.65
2022-07-29T13:42:32.350Z,2.10
2022-07-29T13:44:59.918Z,2.30
2022-07-29T13:47:32.550Z,2.22
2022-07-29T13:50:00.589Z,1.70
2022-07-29T13:52:27.189Z,2.33
2022-07-29T13:54:53.759Z,2.30
2022-07-29T13:57:20.334Z,2.45
2022-07-29T13:59:50.602Z,2.55
2022-07-29T14:02:20.606Z,2.33
2022-07-29T14:04:47.657Z,2.73
2022-07-29T14:07:17.335Z,2.67
2022-07-29T14:09:44.093Z,2.40
2022-07-29T14:12:10.824Z,2.70
2022-07-29T14:14:37.691Z,2.60
2022-07-29T14:17:07.540Z,2.30
2022-07-29T14:19:39.142Z,3.00
2022-07-29T14:22:06.675Z,2.95
2022-07-29T14:24:36.412Z,3.45
2022-07-29T14:27:07.598Z,2.50
2022-07-29T14:29:37.605Z,2.47
2022-07-29T14:32:08.205Z,3.70
2022-07-29T14:34:36.613Z,3.55
2022-07-29T14:37:06.110Z,2.90
2022-07-29T14:39:32.939Z,2.80
2022-07-29T14:42:00.512Z,2.70
2022-07-29T14:44:32.172Z,2.80
2022-07-29T14:47:07.642Z,3.22
2022-07-29T14:49:34.843Z,3.10
2022-07-29T14:52:01.664Z,3.20
2022-07-29T14:54:28.435Z,2.80
2022-07-29T14:56:57.940Z,2.75
2022-07-29T14:59:24.806Z,3.50
2022-07-29T15:01:52.538Z,3.13
2022-07-29T15:04:19.193Z,4.32
2022-07-29T15:06:45.811Z,3.40
2022-07-29T15:09:12.875Z,2.70
2022-07-29T15:11:39.499Z,3.15
2022-07-29T15:14:06.810Z,3.15
2022-07-29T15:16:33.956Z,3.40
2022-07-29T15:19:01.337Z,3.20
2022-07-29T15:21:28.210Z,3.47
2022-07-29T15:23:54.772Z,3.80
2022-07-29T15:26:21.423Z,3.90
2022-07-29T15:28:49.082Z,2.83
2022-07-29T15:31:16.114Z,3.00
2022-07-29T15:33:42.808Z,2.75
2022-07-29T15:36:09.595Z,2.97
2022-07-29T15:38:36.329Z,3.28
2022-07-29T15:41:08.610Z,2.97
2022-07-29T15:43:36.194Z,2.87
2022-07-29T15:46:21.364Z,2.80
2022-07-29T15:48:48.204Z,2.05
2022-07-29T15:51:15.179Z,2.65
2022-07-29T15:53:41.759Z,3.28
2022-07-29T15:56:08.405Z,2.77
2022-07-29T15:58:34.980Z,2.30
2022-07-29T16:01:01.610Z,2.65
2022-07-29T16:03:28.343Z,2.35
2022-07-29T16:05:54.903Z,2.47
2022-07-29T16:08:21.498Z,2.30
2022-07-29T16:10:48.035Z,2.30
2022-07-29T16:13:17.055Z,2.30
2022-07-29T16:16:02.366Z,2.33
2022-07-29T16:18:30.501Z,4.57
2022-07-29T16:20:57.736Z,2.40
2022-07-29T16:23:24.765Z,2.20
2022-07-29T16:25:59.691Z,2.08
2022-07-29T16:28:27.832Z,2.10
2022-07-29T16:30:54.421Z,2.25
2022-07-29T16:33:21.021Z,2.80
2022-07-29T16:35:47.573Z,2.60
2022-07-29T16:38:14.106Z,2.75
2022-07-29T16:40:41.492Z,3.38
2022-07-29T16:43:08.754Z,7.65
2022-07-29T16:45:45.989Z,2.40
2022-07-29T16:48:14.334Z,3.13
2022-07-29T16:50:41.519Z,4.97
2022-07-29T16:53:10.486Z,2.90
2022-07-29T16:55:37.206Z,2.17
2022-07-29T16:58:03.894Z,3.00
2022-07-29T17:00:30.515Z,3.00
2022-07-29T17:02:57.208Z,2.00
2022-07-29T17:05:24.237Z,2.00
2022-07-29T17:07:50.824Z,4.70
2022-07-29T17:10:17.548Z,2.58
2022-07-29T17:12:44.650Z,2.70
2022-07-29T17:15:12.082Z,2.88
2022-07-29T17:17:55.450Z,2.45
2022-07-29T17:20:23.466Z,2.67
2022-07-29T17:22:50.154Z,3.00
2022-07-29T17:25:20.669Z,2.60
2022-07-29T17:27:49.707Z,2.77
2022-07-29T17:30:16.565Z,2.35
2022-07-29T17:32:43.144Z,2.95
2022-07-29T17:35:29.106Z,2.10
2022-07-29T17:37:55.702Z,2.20
2022-07-29T17:40:22.566Z,2.20
2022-07-29T17:42:49.170Z,2.30
2022-07-29T17:45:16.036Z,2.30
2022-07-29T17:47:42.540Z,2.33
2022-07-29T17:50:09.254Z,2.05
2022-07-29T17:52:35.796Z,2.63
2022-07-29T17:55:02.631Z,2.30
2022-07-29T17:57:29.233Z,3.67
2022-07-29T17:59:55.826Z,2.90
2022-07-29T18:02:22.500Z,2.15
2022-07-29T18:04:51.556Z,2.50
2022-07-29T18:07:18.545Z,2.20
2022-07-29T18:09:45.215Z,2.83
2022-07-29T18:12:11.785Z,2.17
2022-07-29T18:14:38.613Z,2.25
2022-07-29T18:17:05.188Z,2.40
2022-07-29T18:19:31.823Z,2.20
2022-07-29T18:22:04.867Z,2.33
2022-07-29T18:24:32.173Z,2.47
2022-07-29T18:26:58.919Z,2.40
2022-07-29T18:29:28.824Z,2.60
2022-07-29T18:31:55.694Z,2.60
2022-07-29T18:34:22.236Z,4.07
2022-07-29T18:36:48.797Z,3.67
2022-07-29T18:39:20.975Z,3.42
2022-07-29T18:41:50.499Z,2.83
2022-07-29T18:44:18.890Z,2.95
2022-07-29T18:46:47.287Z,4.07
2022-07-29T18:49:14.676Z,4.50
2022-07-29T18:51:41.344Z,3.45
2022-07-29T18:54:09.354Z,3.17
2022-07-29T18:56:36.141Z,4.13
2022-07-29T18:59:03.253Z,4.10
2022-07-29T19:01:31.668Z,3.90
2022-07-29T19:03:58.994Z,3.92
2022-07-29T19:06:26.152Z,3.00
2022-07-29T19:08:53.408Z,3.00
2022-07-29T19:11:20.137Z,3.25
2022-07-29T19:13:46.765Z,2.70
2022-07-29T19:16:14.550Z,2.90
2022-07-29T19:18:41.537Z,2.90
2022-07-29T19:21:08.111Z,3.00
2022-07-29T19:24:01.574Z,5.32
2022-07-29T19:26:21.499Z,3.67
2022-07-29T19:28:48.860Z,3.63
2022-07-29T19:31:18.993Z,3.50
2022-07-29T19:33:45.617Z,3.00
2022-07-29T19:36:12.139Z,3.05
2022-07-29T19:38:39.557Z,2.78
2022-07-29T19:41:06.626Z,2.67
2022-07-29T19:43:50.752Z,2.37
2022-07-29T19:46:18.829Z,2.50
2022-07-29T19:48:45.708Z,2.30
2022-07-29T19:51:12.258Z,2.80
2022-07-29T19:53:38.826Z,2.65
2022-07-29T19:56:05.690Z,2.40
2022-07-29T19:58:35.728Z,2.60
2022-07-29T20:01:03.184Z,3.05
2022-07-29T20:03:39.695Z,2.60
2022-07-29T20:06:06.709Z,2.78
2022-07-29T20:08:33.330Z,2.47
2022-07-29T20:10:59.891Z,2.50
2022-07-29T20:13:26.556Z,2.58
2022-07-29T20:15:53.317Z,2.40
2022-07-29T20:18:20.022Z,2.50
2022-07-29T20:20:48.122Z,2.00
2022-07-29T20:23:14.830Z,2.50
2022-07-29T20:25:41.706Z,2.50
2022-07-29T20:28:08.394Z,2.22
2022-07-29T20:30:34.968Z,2.60
2022-07-29T20:33:05.344Z,2.70
2022-07-29T20:35:32.033Z,2.75
2022-07-29T20:37:59.751Z,2.40
2022-07-29T20:40:27.264Z,2.90
2022-07-29T20:42:55.103Z,3.38
2022-07-29T20:45:23.461Z,2.60
2022-07-29T20:47:51.693Z,3.88
2022-07-29T20:50:19.186Z,3.85
2022-07-29T20:52:45.901Z,4.43
2022-07-29T20:55:12.647Z,4.57
2022-07-29T20:57:39.958Z,3.40
2022-07-29T21:00:07.741Z,3.03
2022-07-29T21:02:34.491Z,3.00
2022-07-29T21:05:01.155Z,2.65
2022-07-29T21:07:27.757Z,2.83
2022-07-29T21:09:54.297Z,2.50
2022-07-29T21:12:20.881Z,2.85
2022-07-29T21:14:51.290Z,2.25
2022-07-29T21:17:21.280Z,2.28
2022-07-29T21:19:52.423Z,2.60
2022-07-29T21:22:21.686Z,2.40
2022-07-29T21:24:48.857Z,2.35
2022-07-29T21:27:33.938Z,2.80
2022-07-29T21:30:00.525Z,2.50
2022-07-29T21:32:29.679Z,2.60
2022-07-29T21:34:57.020Z,2.70
2022-07-29T21:37:23.620Z,2.65
2022-07-29T21:39:50.170Z,2.38
2022-07-29T21:42:16.855Z,2.67
2022-07-29T21:44:43.519Z,2.35
2022-07-29T21:47:11.638Z,2.70
2022-07-29T21:49:38.539Z,2.65
2022-07-29T21:52:05.754Z,2.92
2022-07-29T21:54:34.598Z,3.10
2022-07-29T21:57:01.192Z,3.22
2022-07-29T21:59:27.762Z,3.20
2022-07-29T22:01:54.788Z,3.45
2022-07-29T22:04:21.443Z,3.00
2022-07-29T22:06:48.145Z,3.60
2022-07-29T22:09:14.749Z,3.25
2022-07-29T22:11:42.009Z,3.50
2022-07-29T22:14:08.540Z,3.10
2022-07-29T22:16:35.297Z,3.50
2022-07-29T22:19:03.947Z,3.28
2022-07-29T22:21:30.861Z,3.42
2022-07-29T22:23:57.578Z,3.27
2022-07-29T22:26:24.212Z,3.10
2022-07-29T22:28:50.801Z,3.22
2022-07-29T22:31:17.417Z,3.20
2022-07-29T22:33:44.113Z,3.20
2022-07-29T22:36:10.759Z,2.70
2022-07-29T22:38:37.482Z,3.20
2022-07-29T22:41:07.224Z,3.67
2022-07-29T22:43:35.115Z,3.50
2022-07-29T22:46:01.779Z,3.40
2022-07-29T22:48:28.361Z,3.80
2022-07-29T22:50:54.917Z,3.25
2022-07-29T22:53:22.134Z,3.78
2022-07-29T22:55:48.690Z,3.42
2022-07-29T22:58:15.201Z,3.42
2022-07-29T23:00:41.714Z,3.33
2022-07-29T23:03:08.242Z,3.00
2022-07-29T23:05:34.853Z,3.53
2022-07-29T23:08:01.536Z,3.42
2022-07-29T23:10:28.366Z,3.63
2022-07-29T23:12:54.878Z,3.63
2022-07-29T23:15:21.499Z,3.75
2022-07-29T23:17:48.028Z,3.58
2022-07-29T23:20:15.012Z,4.10
2022-07-29T23:22:42.246Z,3.63
2022-07-29T23:25:08.850Z,4.10
2022-07-29T23:27:38.001Z,3.70
2022-07-29T23:30:06.718Z,3.67
2022-07-29T23:32:33.308Z,3.70
2022-07-29T23:34:59.880Z,4.00
2022-07-29T23:37:27.051Z,3.70
2022-07-29T23:39:53.882Z,3.63
2022-07-29T23:42:20.399Z,3.58
2022-07-29T23:44:46.932Z,3.50
2022-07-29T23:47:13.768Z,3.90
2022-07-29T23:49:40.367Z,3.67
2022-07-29T23:52:07.101Z,3.40
2022-07-29T23:54:33.738Z,3.70
2022-07-29T23:57:01.114Z,3.63
2022-07-29T23:59:27.867Z,3.92
